LGSY

Details ICAO LGSY (SKU)
Name SKIROS
Region Greece
Timezone Europe/Athens (UTC+2.0)
Plans Departing 4
Arriving 11
Stats Elevation 44 ft / 13 m (AMSL)
Location 38.967554° 24.487226°
Runways 1
Magnetic Variation 4.657° E
Sunrise 2017-12-15 05:35:02 UTC / 2017-12-15 07:35:02 Local
Sunset 2017-12-15 15:02:06 UTC / 2017-12-15 17:02:06 Local
Advertisement - Login to hide

Runways

ID Width Length Bearing (true) Bearing (mag) Surface Threshold Offset Overrun Length
18 98 ft / 30 m 9,864 ft / 3,006 m 175.81° 171.15° Asphalt 541 ft / 165 m 956 ft / 291 m
36 98 ft / 30 m 9,864 ft / 3,006 m 355.81° 351.15° Asphalt 2,625 ft / 800 m 890 ft / 271 m

Map

Weather


0- 5 10 15 20 25 30 35+ Temperature / ° C

Clouds and Precipitation
Forecast for 2017-12-15 06:00 UTC. Updated 2 hours ago

Ground ~20,000 ft ~40,000 ft Winds

METAR

LGSY 150450Z 00000KT CAVOK 11/07 Q1013 RMK FEW200 BLU

TAF

Not found

Frequencies

Tower 123.20 MHz TWR
Approach 123.20 MHz APP
Warning: Do not use this data for real-world aviation or navigation. No guarantee of current accuracy is given.